createdAt,value
2022-09-27T00:02:47.762Z,83.17
2022-09-27T00:07:55.733Z,83.30
2022-09-27T00:13:01.702Z,84.01
2022-09-27T00:18:07.721Z,83.46
2022-09-27T00:23:15.227Z,83.91
2022-09-27T00:28:21.249Z,83.31
2022-09-27T00:33:27.533Z,82.29
2022-09-27T00:38:35.174Z,82.57
2022-09-27T00:43:49.560Z,83.97
2022-09-27T00:49:10.191Z,83.01
2022-09-27T00:54:21.468Z,82.65
2022-09-27T00:59:31.957Z,82.72
2022-09-27T01:04:40.289Z,83.28
2022-09-27T01:09:48.515Z,84.21
2022-09-27T01:15:15.345Z,84.35
2022-09-27T01:20:56.858Z,83.33
2022-09-27T01:26:18.538Z,82.96
2022-09-27T01:31:33.409Z,82.80
2022-09-27T01:36:50.976Z,82.92
2022-09-27T01:42:05.788Z,84.01
2022-09-27T01:47:23.998Z,84.86
2022-09-27T01:52:48.035Z,83.79
2022-09-27T01:58:08.315Z,83.56
2022-09-27T02:03:20.350Z,84.34
2022-09-27T02:08:52.764Z,83.59
2022-09-27T02:14:22.827Z,83.07
2022-09-27T02:19:49.358Z,83.94
2022-09-27T02:25:06.400Z,82.83
2022-09-27T02:30:16.362Z,82.57
2022-09-27T02:35:32.851Z,83.22
2022-09-27T02:40:46.328Z,83.12
2022-09-27T02:46:13.038Z,82.76
2022-09-27T02:51:44.088Z,82.52
2022-09-27T02:57:04.006Z,82.95
2022-09-27T03:02:33.901Z,83.68
2022-09-27T03:08:01.472Z,84.32
2022-09-27T03:13:08.220Z,85.05
2022-09-27T03:18:14.972Z,84.73
2022-09-27T03:23:22.907Z,84.81
2022-09-27T03:28:29.987Z,84.96
2022-09-27T03:33:36.748Z,84.56
2022-09-27T03:38:49.176Z,84.09
2022-09-27T03:43:58.208Z,84.72
2022-09-27T03:49:04.422Z,86.14
2022-09-27T03:54:12.076Z,84.49
2022-09-27T03:59:18.079Z,86.16
2022-09-27T04:04:59.849Z,86.12
2022-09-27T04:10:09.046Z,87.61
2022-09-27T04:15:17.044Z,87.83
2022-09-27T04:20:43.209Z,87.12
2022-09-27T04:25:53.743Z,86.10
2022-09-27T04:31:17.452Z,87.04
2022-09-27T04:36:31.092Z,86.13
2022-09-27T04:41:59.999Z,87.61
2022-09-27T04:52:17.396Z,86.04
2022-09-27T04:57:24.902Z,87.11
2022-09-27T05:02:31.654Z,87.38
2022-09-27T05:07:56.595Z,86.39
2022-09-27T05:13:14.268Z,87.04
2022-09-27T05:18:20.403Z,86.96
2022-09-27T05:24:10.076Z,86.83
2022-09-27T05:29:18.023Z,85.24
2022-09-27T05:34:35.310Z,85.36
2022-09-27T05:39:41.650Z,86.03
2022-09-27T05:44:49.595Z,86.66
2022-09-27T05:49:56.098Z,87.96
2022-09-27T05:55:01.999Z,88.18
2022-09-27T06:00:13.163Z,88.84
2022-09-27T06:05:20.054Z,89.31
2022-09-27T06:11:05.142Z,89.66
2022-09-27T06:16:14.131Z,89.86
2022-09-27T06:21:23.454Z,90.05
2022-09-27T06:26:34.926Z,90.18
2022-09-27T06:31:59.699Z,87.84
2022-09-27T06:37:28.278Z,88.00
2022-09-27T06:42:34.497Z,88.89
2022-09-27T06:47:50.499Z,89.04
2022-09-27T06:53:05.161Z,89.16
2022-09-27T06:58:31.299Z,90.01
2022-09-27T07:03:59.066Z,89.78
2022-09-27T07:09:27.689Z,90.35
2022-09-27T07:14:35.390Z,90.59
2022-09-27T07:19:44.434Z,90.28
2022-09-27T07:24:51.868Z,90.43
2022-09-27T07:29:59.313Z,90.22
2022-09-27T07:35:09.807Z,90.70
2022-09-27T07:40:15.871Z,90.24
2022-09-27T07:45:46.929Z,88.72
2022-09-27T07:51:20.689Z,88.20
2022-09-27T07:56:30.372Z,87.55
2022-09-27T08:01:37.781Z,87.67
2022-09-27T08:06:45.403Z,88.31
2022-09-27T08:11:51.927Z,89.41
2022-09-27T08:16:59.134Z,90.05
2022-09-27T08:22:10.049Z,89.97
2022-09-27T08:27:37.651Z,89.78
2022-09-27T08:32:58.128Z,89.84
2022-09-27T08:38:07.116Z,90.44
2022-09-27T08:43:24.552Z,90.23
2022-09-27T08:48:31.885Z,90.76
2022-09-27T08:53:44.360Z,90.34
2022-09-27T08:58:57.724Z,90.41
2022-09-27T09:04:12.856Z,90.63
2022-09-27T09:09:32.405Z,90.77
2022-09-27T09:15:17.856Z,90.28
2022-09-27T09:20:45.997Z,90.07
2022-09-27T09:26:03.222Z,90.18
2022-09-27T09:31:21.928Z,90.02
2022-09-27T09:36:33.970Z,89.94
2022-09-27T09:42:00.405Z,89.80
2022-09-27T09:47:18.531Z,90.00
2022-09-27T09:52:34.263Z,89.36
2022-09-27T09:57:50.371Z,89.30
2022-09-27T10:03:02.613Z,89.43
2022-09-27T10:08:20.158Z,89.19
2022-09-27T10:13:37.578Z,89.52
2022-09-27T10:18:49.899Z,89.52
2022-09-27T10:24:17.730Z,89.69
2022-09-27T10:29:47.139Z,89.02
2022-09-27T10:35:23.564Z,88.34
2022-09-27T10:40:34.081Z,88.50
2022-09-27T10:45:46.083Z,88.26
2022-09-27T10:51:03.707Z,87.19
2022-09-27T10:56:28.875Z,87.57
2022-09-27T11:01:48.619Z,87.77
2022-09-27T11:07:24.454Z,87.07
2022-09-27T11:12:42.302Z,87.81
2022-09-27T11:18:03.285Z,86.43
2022-09-27T11:23:28.502Z,86.30
2022-09-27T11:28:49.935Z,86.63
2022-09-27T11:34:47.844Z,85.20
2022-09-27T11:40:08.113Z,84.46
2022-09-27T11:45:50.473Z,84.58
2022-09-27T11:51:24.896Z,84.82
2022-09-27T11:56:43.698Z,84.52
2022-09-27T12:01:57.645Z,84.66
2022-09-27T12:07:13.002Z,84.80
2022-09-27T12:12:25.589Z,84.11
2022-09-27T12:17:37.767Z,84.06
2022-09-27T12:23:00.047Z,83.45
2022-09-27T12:28:35.050Z,81.90
2022-09-27T12:33:49.132Z,82.86
2022-09-27T12:39:06.000Z,82.55
2022-09-27T12:44:14.480Z,82.42
2022-09-27T12:49:42.911Z,82.09
2022-09-27T12:55:32.894Z,81.28
2022-09-27T13:00:47.553Z,82.14
2022-09-27T13:06:32.554Z,81.19
2022-09-27T13:11:54.225Z,80.19
2022-09-27T13:17:00.434Z,79.89
2022-09-27T13:22:09.343Z,78.83
2022-09-27T13:27:45.174Z,78.27
2022-09-27T13:33:38.939Z,77.94
2022-09-27T13:39:06.256Z,77.60
2022-09-27T13:44:33.604Z,77.42
2022-09-27T13:49:42.240Z,76.72
2022-09-27T13:54:59.247Z,77.27
2022-09-27T14:00:18.626Z,77.38
2022-09-27T14:05:42.256Z,77.68
2022-09-27T14:10:48.249Z,77.10
2022-09-27T14:15:58.132Z,77.46
2022-09-27T14:21:29.470Z,77.49
2022-09-27T14:26:49.339Z,77.51
2022-09-27T14:32:09.615Z,77.25
2022-09-27T14:37:27.653Z,78.07
2022-09-27T14:42:44.897Z,77.64
2022-09-27T14:47:54.264Z,78.01
2022-09-27T14:53:02.782Z,78.08
2022-09-27T14:58:35.986Z,77.72
2022-09-27T15:03:46.769Z,77.85
2022-09-27T15:08:55.359Z,77.70
2022-09-27T15:14:03.572Z,78.10
2022-09-27T15:19:19.176Z,78.35
2022-09-27T15:24:45.242Z,77.57
2022-09-27T15:29:53.665Z,78.02
2022-09-27T15:35:09.643Z,78.00
2022-09-27T15:41:07.069Z,77.88
2022-09-27T15:46:36.685Z,77.93
2022-09-27T15:51:45.924Z,77.97
2022-09-27T15:56:55.513Z,78.06
2022-09-27T16:02:08.116Z,78.05
2022-09-27T16:07:16.546Z,78.74
2022-09-27T16:12:25.538Z,78.87
2022-09-27T16:17:31.907Z,78.48
2022-09-27T16:22:39.833Z,78.93
2022-09-27T16:27:46.232Z,78.73
2022-09-27T16:32:52.713Z,79.44
2022-09-27T16:38:00.516Z,79.63
2022-09-27T16:43:07.704Z,79.59
2022-09-27T16:48:14.347Z,80.00
2022-09-27T16:53:22.175Z,79.89
2022-09-27T16:58:31.312Z,80.34
2022-09-27T17:03:37.518Z,80.26
2022-09-27T17:08:45.149Z,80.85
2022-09-27T17:13:56.350Z,80.51
2022-09-27T17:19:03.915Z,81.15
2022-09-27T17:24:12.380Z,81.18
2022-09-27T17:29:19.163Z,81.13
2022-09-27T17:34:26.063Z,80.91
2022-09-27T17:39:34.024Z,81.44
2022-09-27T17:44:40.696Z,81.43
2022-09-27T17:50:04.577Z,81.43
2022-09-27T17:55:12.565Z,80.95
2022-09-27T18:00:21.863Z,81.41
2022-09-27T18:05:29.648Z,81.57
2022-09-27T18:10:38.159Z,81.08
2022-09-27T18:15:44.273Z,81.92
2022-09-27T18:20:53.498Z,81.38
2022-09-27T18:26:03.418Z,81.94
2022-09-27T18:36:37.789Z,82.23
2022-09-27T18:41:45.682Z,81.99
2022-09-27T18:46:54.227Z,81.78
2022-09-27T18:52:03.197Z,82.37
2022-09-27T18:57:11.058Z,82.39
2022-09-27T19:02:17.716Z,83.02
2022-09-27T19:08:11.651Z,82.68
2022-09-27T19:13:17.380Z,82.84
2022-09-27T19:18:24.051Z,82.67
2022-09-27T19:23:31.587Z,83.41
2022-09-27T19:28:41.754Z,83.43
2022-09-27T19:33:48.595Z,83.40
2022-09-27T19:38:59.161Z,83.64
2022-09-27T19:44:07.042Z,83.60
2022-09-27T19:49:13.122Z,82.89
2022-09-27T19:54:20.806Z,83.45
2022-09-27T19:59:30.160Z,83.05
2022-09-27T20:04:36.306Z,82.88
2022-09-27T20:09:43.146Z,82.33
2022-09-27T20:14:50.899Z,83.28
2022-09-27T20:19:57.228Z,84.10
2022-09-27T20:25:03.417Z,83.84
2022-09-27T20:30:15.630Z,84.19
2022-09-27T20:35:22.574Z,85.88
2022-09-27T20:40:28.600Z,85.66
2022-09-27T20:45:36.083Z,86.34
2022-09-27T20:50:43.212Z,86.32
2022-09-27T20:55:49.525Z,86.46
2022-09-27T21:00:57.250Z,85.80
2022-09-27T21:06:04.868Z,85.95
2022-09-27T21:11:20.199Z,86.96
2022-09-27T21:16:40.430Z,88.03
2022-09-27T21:21:55.710Z,87.87
2022-09-27T21:27:10.572Z,87.40
2022-09-27T21:32:20.880Z,87.38
2022-09-27T21:37:27.001Z,87.96
2022-09-27T21:42:33.024Z,88.74
2022-09-27T21:47:40.415Z,88.41
2022-09-27T21:52:46.337Z,88.55
2022-09-27T21:57:52.449Z,88.71
2022-09-27T22:03:00.910Z,87.88
2022-09-27T22:08:06.943Z,87.84
2022-09-27T22:13:13.649Z,87.31
2022-09-27T22:18:21.789Z,86.57
2022-09-27T22:23:27.815Z,86.87
2022-09-27T22:28:33.754Z,86.95
2022-09-27T22:33:41.197Z,87.71
2022-09-27T22:38:47.515Z,88.16
2022-09-27T22:43:54.882Z,88.23
2022-09-27T22:49:02.403Z,87.06
2022-09-27T22:54:08.446Z,86.61
2022-09-27T22:59:14.974Z,86.62
2022-09-27T23:04:22.435Z,85.97
2022-09-27T23:09:28.528Z,86.11
2022-09-27T23:14:34.400Z,87.00
2022-09-27T23:19:41.814Z,86.50
2022-09-27T23:24:47.684Z,86.49
2022-09-27T23:29:53.521Z,86.58
2022-09-27T23:35:00.887Z,86.81
2022-09-27T23:40:10.479Z,86.31
2022-09-27T23:45:16.643Z,86.75
2022-09-27T23:50:24.135Z,85.87
2022-09-27T23:55:29.876Z,85.76
